sensor_id;sensor_type;location;lat;lon;timestamp;P1;durP1;ratioP1;P2;durP2;ratioP2
42036;SDS011;30340;52.004;5.908;2023-08-01T00:01:23;5.28;;;4.13;;
42036;SDS011;30340;52.004;5.908;2023-08-01T00:03:49;5.57;;;4.43;;
42036;SDS011;30340;52.004;5.908;2023-08-01T00:06:14;6.10;;;4.80;;
42036;SDS011;30340;52.004;5.908;2023-08-01T00:08:40;5.35;;;4.30;;
42036;SDS011;30340;52.004;5.908;2023-08-01T00:11:06;5.50;;;4.25;;
42036;SDS011;30340;52.004;5.908;2023-08-01T00:13:32;4.22;;;3.40;;
42036;SDS011;30340;52.004;5.908;2023-08-01T00:15:57;4.38;;;3.13;;
42036;SDS011;30340;52.004;5.908;2023-08-01T00:18:23;4.65;;;3.42;;
42036;SDS011;30340;52.004;5.908;2023-08-01T00:20:51;4.47;;;2.67;;
42036;SDS011;30340;52.004;5.908;2023-08-01T00:23:18;4.05;;;3.03;;
42036;SDS011;30340;52.004;5.908;2023-08-01T00:25:44;4.22;;;2.88;;
42036;SDS011;30340;52.004;5.908;2023-08-01T00:28:10;4.38;;;2.60;;
42036;SDS011;30340;52.004;5.908;2023-08-01T00:30:35;4.55;;;2.65;;
42036;SDS011;30340;52.004;5.908;2023-08-01T00:33:01;5.72;;;2.45;;
42036;SDS011;30340;52.004;5.908;2023-08-01T00:35:26;5.70;;;2.53;;
42036;SDS011;30340;52.004;5.908;2023-08-01T00:37:52;4.80;;;2.20;;
42036;SDS011;30340;52.004;5.908;2023-08-01T00:40:17;5.45;;;2.70;;
42036;SDS011;30340;52.004;5.908;2023-08-01T00:42:43;3.40;;;2.42;;
42036;SDS011;30340;52.004;5.908;2023-08-01T00:45:09;4.00;;;2.42;;
42036;SDS011;30340;52.004;5.908;2023-08-01T00:47:35;3.38;;;2.13;;
42036;SDS011;30340;52.004;5.908;2023-08-01T00:50:01;3.42;;;2.33;;
42036;SDS011;30340;52.004;5.908;2023-08-01T00:52:27;4.90;;;2.05;;
42036;SDS011;30340;52.004;5.908;2023-08-01T00:54:53;4.30;;;2.42;;
42036;SDS011;30340;52.004;5.908;2023-08-01T00:57:19;3.80;;;2.33;;
42036;SDS011;30340;52.004;5.908;2023-08-01T00:59:46;4.38;;;2.60;;
42036;SDS011;30340;52.004;5.908;2023-08-01T01:02:11;4.97;;;2.38;;
42036;SDS011;30340;52.004;5.908;2023-08-01T01:04:37;4.05;;;2.58;;
42036;SDS011;30340;52.004;5.908;2023-08-01T01:07:03;3.85;;;2.55;;
42036;SDS011;30340;52.004;5.908;2023-08-01T01:09:31;5.00;;;2.63;;
42036;SDS011;30340;52.004;5.908;2023-08-01T01:11:57;4.45;;;3.00;;
42036;SDS011;30340;52.004;5.908;2023-08-01T01:14:24;4.85;;;2.83;;
42036;SDS011;30340;52.004;5.908;2023-08-01T01:16:53;5.63;;;3.00;;
42036;SDS011;30340;52.004;5.908;2023-08-01T01:19:18;4.75;;;2.85;;
42036;SDS011;30340;52.004;5.908;2023-08-01T01:21:44;5.47;;;2.80;;
42036;SDS011;30340;52.004;5.908;2023-08-01T01:24:11;5.28;;;2.80;;
42036;SDS011;30340;52.004;5.908;2023-08-01T01:26:38;2.90;;;2.00;;
42036;SDS011;30340;52.004;5.908;2023-08-01T01:29:06;4.78;;;2.60;;
42036;SDS011;30340;52.004;5.908;2023-08-01T01:31:33;4.55;;;2.40;;
42036;SDS011;30340;52.004;5.908;2023-08-01T01:33:59;4.50;;;2.65;;
42036;SDS011;30340;52.004;5.908;2023-08-01T01:36:25;6.28;;;3.00;;
42036;SDS011;30340;52.004;5.908;2023-08-01T01:38:51;6.20;;;3.22;;
42036;SDS011;30340;52.004;5.908;2023-08-01T01:41:16;5.50;;;3.05;;
42036;SDS011;30340;52.004;5.908;2023-08-01T01:43:42;3.42;;;2.35;;
42036;SDS011;30340;52.004;5.908;2023-08-01T01:46:09;5.53;;;3.28;;
42036;SDS011;30340;52.004;5.908;2023-08-01T01:48:34;6.15;;;3.58;;
42036;SDS011;30340;52.004;5.908;2023-08-01T01:51:00;4.93;;;3.60;;
42036;SDS011;30340;52.004;5.908;2023-08-01T01:53:25;6.38;;;3.85;;
42036;SDS011;30340;52.004;5.908;2023-08-01T01:55:51;6.25;;;4.00;;
42036;SDS011;30340;52.004;5.908;2023-08-01T01:58:17;6.03;;;3.88;;
42036;SDS011;30340;52.004;5.908;2023-08-01T02:00:42;6.72;;;3.90;;
42036;SDS011;30340;52.004;5.908;2023-08-01T02:03:08;6.03;;;3.92;;
42036;SDS011;30340;52.004;5.908;2023-08-01T02:05:35;6.78;;;4.53;;
42036;SDS011;30340;52.004;5.908;2023-08-01T02:08:01;7.10;;;4.85;;
42036;SDS011;30340;52.004;5.908;2023-08-01T02:10:27;6.18;;;4.30;;
42036;SDS011;30340;52.004;5.908;2023-08-01T02:12:53;7.30;;;4.88;;
42036;SDS011;30340;52.004;5.908;2023-08-01T02:15:18;8.30;;;4.60;;
42036;SDS011;30340;52.004;5.908;2023-08-01T02:17:44;7.80;;;4.70;;
42036;SDS011;30340;52.004;5.908;2023-08-01T02:20:10;8.63;;;4.53;;
42036;SDS011;30340;52.004;5.908;2023-08-01T02:22:36;7.55;;;4.50;;
42036;SDS011;30340;52.004;5.908;2023-08-01T02:25:01;8.40;;;4.60;;
42036;SDS011;30340;52.004;5.908;2023-08-01T02:27:27;7.05;;;4.00;;
42036;SDS011;30340;52.004;5.908;2023-08-01T02:29:52;6.43;;;3.47;;
42036;SDS011;30340;52.004;5.908;2023-08-01T02:32:18;5.47;;;3.40;;
42036;SDS011;30340;52.004;5.908;2023-08-01T02:34:43;8.43;;;4.38;;
42036;SDS011;30340;52.004;5.908;2023-08-01T02:37:09;5.82;;;3.85;;
42036;SDS011;30340;52.004;5.908;2023-08-01T02:39:35;9.23;;;4.32;;
42036;SDS011;30340;52.004;5.908;2023-08-01T02:42:00;6.63;;;4.03;;
42036;SDS011;30340;52.004;5.908;2023-08-01T02:44:26;7.57;;;4.85;;
42036;SDS011;30340;52.004;5.908;2023-08-01T02:46:52;10.88;;;4.80;;
42036;SDS011;30340;52.004;5.908;2023-08-01T02:49:18;6.65;;;3.90;;
42036;SDS011;30340;52.004;5.908;2023-08-01T02:51:43;6.93;;;4.13;;
42036;SDS011;30340;52.004;5.908;2023-08-01T02:54:09;7.00;;;3.72;;
42036;SDS011;30340;52.004;5.908;2023-08-01T02:56:34;8.23;;;3.95;;
42036;SDS011;30340;52.004;5.908;2023-08-01T02:59:00;7.63;;;4.15;;
42036;SDS011;30340;52.004;5.908;2023-08-01T03:01:26;7.00;;;3.28;;
42036;SDS011;30340;52.004;5.908;2023-08-01T03:03:51;6.30;;;3.63;;
42036;SDS011;30340;52.004;5.908;2023-08-01T03:06:17;6.63;;;3.65;;
42036;SDS011;30340;52.004;5.908;2023-08-01T03:08:43;10.20;;;4.70;;
42036;SDS011;30340;52.004;5.908;2023-08-01T03:11:08;11.18;;;4.35;;
42036;SDS011;30340;52.004;5.908;2023-08-01T03:13:34;8.43;;;4.80;;
42036;SDS011;30340;52.004;5.908;2023-08-01T03:15:59;8.88;;;4.45;;
42036;SDS011;30340;52.004;5.908;2023-08-01T03:18:25;8.95;;;4.10;;
42036;SDS011;30340;52.004;5.908;2023-08-01T03:20:50;7.47;;;3.70;;
42036;SDS011;30340;52.004;5.908;2023-08-01T03:23:16;8.18;;;4.53;;
42036;SDS011;30340;52.004;5.908;2023-08-01T03:25:42;10.32;;;4.88;;
42036;SDS011;30340;52.004;5.908;2023-08-01T03:28:07;11.18;;;4.70;;
42036;SDS011;30340;52.004;5.908;2023-08-01T03:30:34;11.00;;;4.75;;
42036;SDS011;30340;52.004;5.908;2023-08-01T03:33:01;9.00;;;4.32;;
42036;SDS011;30340;52.004;5.908;2023-08-01T03:35:27;8.52;;;4.32;;
42036;SDS011;30340;52.004;5.908;2023-08-01T03:37:53;9.88;;;4.40;;
42036;SDS011;30340;52.004;5.908;2023-08-01T03:40:19;8.93;;;4.32;;
42036;SDS011;30340;52.004;5.908;2023-08-01T03:42:44;7.03;;;4.07;;
42036;SDS011;30340;52.004;5.908;2023-08-01T03:45:10;10.27;;;4.70;;
42036;SDS011;30340;52.004;5.908;2023-08-01T03:47:36;6.63;;;4.00;;
42036;SDS011;30340;52.004;5.908;2023-08-01T03:50:02;8.38;;;4.93;;
42036;SDS011;30340;52.004;5.908;2023-08-01T03:52:28;10.95;;;4.70;;
42036;SDS011;30340;52.004;5.908;2023-08-01T03:54:54;10.38;;;5.00;;
42036;SDS011;30340;52.004;5.908;2023-08-01T03:57:20;9.77;;;4.82;;
42036;SDS011;30340;52.004;5.908;2023-08-01T03:59:48;9.88;;;5.22;;
42036;SDS011;30340;52.004;5.908;2023-08-01T04:02:14;6.63;;;4.35;;
42036;SDS011;30340;52.004;5.908;2023-08-01T04:04:39;10.57;;;5.32;;
42036;SDS011;30340;52.004;5.908;2023-08-01T04:07:05;12.00;;;5.10;;
42036;SDS011;30340;52.004;5.908;2023-08-01T04:09:30;14.68;;;5.47;;
42036;SDS011;30340;52.004;5.908;2023-08-01T04:11:56;8.85;;;4.90;;
42036;SDS011;30340;52.004;5.908;2023-08-01T04:14:21;11.02;;;5.45;;
42036;SDS011;30340;52.004;5.908;2023-08-01T04:16:47;12.38;;;5.53;;
42036;SDS011;30340;52.004;5.908;2023-08-01T04:19:13;10.57;;;4.85;;
42036;SDS011;30340;52.004;5.908;2023-08-01T04:21:38;10.10;;;4.40;;
42036;SDS011;30340;52.004;5.908;2023-08-01T04:24:04;9.77;;;5.13;;
42036;SDS011;30340;52.004;5.908;2023-08-01T04:26:30;9.70;;;4.50;;
42036;SDS011;30340;52.004;5.908;2023-08-01T04:28:55;9.30;;;4.22;;
42036;SDS011;30340;52.004;5.908;2023-08-01T04:31:21;8.38;;;4.65;;
42036;SDS011;30340;52.004;5.908;2023-08-01T04:33:46;10.95;;;4.50;;
42036;SDS011;30340;52.004;5.908;2023-08-01T04:36:12;10.88;;;4.47;;
42036;SDS011;30340;52.004;5.908;2023-08-01T04:38:38;11.38;;;4.70;;
42036;SDS011;30340;52.004;5.908;2023-08-01T04:41:03;12.48;;;5.57;;
42036;SDS011;30340;52.004;5.908;2023-08-01T04:43:29;9.98;;;4.82;;
42036;SDS011;30340;52.004;5.908;2023-08-01T04:45:54;8.40;;;4.22;;
42036;SDS011;30340;52.004;5.908;2023-08-01T04:48:20;8.82;;;4.20;;
42036;SDS011;30340;52.004;5.908;2023-08-01T04:50:45;9.52;;;4.65;;
42036;SDS011;30340;52.004;5.908;2023-08-01T04:53:11;8.00;;;4.65;;
42036;SDS011;30340;52.004;5.908;2023-08-01T04:55:37;8.00;;;3.67;;
42036;SDS011;30340;52.004;5.908;2023-08-01T04:58:03;11.27;;;3.72;;
42036;SDS011;30340;52.004;5.908;2023-08-01T05:00:28;7.10;;;3.47;;
42036;SDS011;30340;52.004;5.908;2023-08-01T05:02:54;11.82;;;5.45;;
42036;SDS011;30340;52.004;5.908;2023-08-01T05:05:19;9.73;;;4.22;;
42036;SDS011;30340;52.004;5.908;2023-08-01T05:07:45;7.85;;;4.50;;
42036;SDS011;30340;52.004;5.908;2023-08-01T05:10:10;8.15;;;4.78;;
42036;SDS011;30340;52.004;5.908;2023-08-01T05:12:36;9.05;;;3.92;;
42036;SDS011;30340;52.004;5.908;2023-08-01T05:15:02;10.50;;;4.60;;
42036;SDS011;30340;52.004;5.908;2023-08-01T05:17:28;8.88;;;4.22;;
42036;SDS011;30340;52.004;5.908;2023-08-01T05:19:54;9.82;;;4.72;;
42036;SDS011;30340;52.004;5.908;2023-08-01T05:22:20;8.38;;;4.07;;
42036;SDS011;30340;52.004;5.908;2023-08-01T05:24:46;9.18;;;4.43;;
42036;SDS011;30340;52.004;5.908;2023-08-01T05:27:11;9.45;;;4.35;;
42036;SDS011;30340;52.004;5.908;2023-08-01T05:29:37;9.55;;;4.20;;
42036;SDS011;30340;52.004;5.908;2023-08-01T05:32:03;10.52;;;4.00;;
42036;SDS011;30340;52.004;5.908;2023-08-01T05:34:28;7.47;;;4.32;;
42036;SDS011;30340;52.004;5.908;2023-08-01T05:36:54;10.23;;;4.40;;
42036;SDS011;30340;52.004;5.908;2023-08-01T05:39:20;9.48;;;4.35;;
42036;SDS011;30340;52.004;5.908;2023-08-01T05:41:45;10.30;;;5.03;;
42036;SDS011;30340;52.004;5.908;2023-08-01T05:44:11;11.30;;;5.20;;
42036;SDS011;30340;52.004;5.908;2023-08-01T05:46:36;9.38;;;4.75;;
42036;SDS011;30340;52.004;5.908;2023-08-01T05:49:02;12.43;;;5.32;;
42036;SDS011;30340;52.004;5.908;2023-08-01T05:51:27;9.38;;;4.60;;
42036;SDS011;30340;52.004;5.908;2023-08-01T05:53:53;9.35;;;4.95;;
42036;SDS011;30340;52.004;5.908;2023-08-01T05:56:19;11.75;;;4.55;;
42036;SDS011;30340;52.004;5.908;2023-08-01T05:58:44;8.25;;;4.40;;
42036;SDS011;30340;52.004;5.908;2023-08-01T06:01:10;7.32;;;4.07;;
42036;SDS011;30340;52.004;5.908;2023-08-01T06:03:37;8.13;;;4.30;;
42036;SDS011;30340;52.004;5.908;2023-08-01T06:06:03;10.85;;;5.13;;
42036;SDS011;30340;52.004;5.908;2023-08-01T06:08:29;7.63;;;4.47;;
42036;SDS011;30340;52.004;5.908;2023-08-01T06:10:55;8.98;;;4.18;;
42036;SDS011;30340;52.004;5.908;2023-08-01T06:13:21;9.20;;;4.50;;
42036;SDS011;30340;52.004;5.908;2023-08-01T06:15:46;9.52;;;4.90;;
42036;SDS011;30340;52.004;5.908;2023-08-01T06:18:12;13.95;;;5.53;;
42036;SDS011;30340;52.004;5.908;2023-08-01T06:20:37;7.03;;;4.00;;
42036;SDS011;30340;52.004;5.908;2023-08-01T06:23:04;9.07;;;4.22;;
42036;SDS011;30340;52.004;5.908;2023-08-01T06:25:29;7.88;;;4.13;;
42036;SDS011;30340;52.004;5.908;2023-08-01T06:27:55;10.75;;;4.30;;
42036;SDS011;30340;52.004;5.908;2023-08-01T06:30:21;8.85;;;4.10;;
42036;SDS011;30340;52.004;5.908;2023-08-01T06:32:53;10.18;;;4.22;;
42036;SDS011;30340;52.004;5.908;2023-08-01T06:35:19;7.97;;;4.07;;
42036;SDS011;30340;52.004;5.908;2023-08-01T06:37:46;11.32;;;4.50;;
42036;SDS011;30340;52.004;5.908;2023-08-01T06:40:11;11.10;;;4.63;;
42036;SDS011;30340;52.004;5.908;2023-08-01T06:42:37;9.48;;;4.20;;
42036;SDS011;30340;52.004;5.908;2023-08-01T06:45:03;8.88;;;3.85;;
42036;SDS011;30340;52.004;5.908;2023-08-01T06:47:29;7.30;;;3.33;;
42036;SDS011;30340;52.004;5.908;2023-08-01T06:49:55;9.93;;;4.22;;
42036;SDS011;30340;52.004;5.908;2023-08-01T06:52:20;7.07;;;4.05;;
42036;SDS011;30340;52.004;5.908;2023-08-01T06:54:46;9.85;;;4.47;;
42036;SDS011;30340;52.004;5.908;2023-08-01T06:57:12;8.70;;;4.10;;
42036;SDS011;30340;52.004;5.908;2023-08-01T06:59:37;8.70;;;3.42;;
42036;SDS011;30340;52.004;5.908;2023-08-01T07:02:03;7.78;;;3.78;;
42036;SDS011;30340;52.004;5.908;2023-08-01T07:04:29;10.65;;;4.93;;
42036;SDS011;30340;52.004;5.908;2023-08-01T07:06:55;13.50;;;4.28;;
42036;SDS011;30340;52.004;5.908;2023-08-01T07:09:20;8.10;;;3.63;;
42036;SDS011;30340;52.004;5.908;2023-08-01T07:11:46;8.00;;;3.90;;
42036;SDS011;30340;52.004;5.908;2023-08-01T07:14:11;7.43;;;3.80;;
42036;SDS011;30340;52.004;5.908;2023-08-01T07:16:37;6.68;;;3.53;;
42036;SDS011;30340;52.004;5.908;2023-08-01T07:19:02;8.25;;;3.40;;
42036;SDS011;30340;52.004;5.908;2023-08-01T07:21:28;10.55;;;3.65;;
42036;SDS011;30340;52.004;5.908;2023-08-01T07:23:54;7.65;;;3.55;;
42036;SDS011;30340;52.004;5.908;2023-08-01T07:26:19;10.18;;;3.97;;
42036;SDS011;30340;52.004;5.908;2023-08-01T07:28:45;7.57;;;3.50;;
42036;SDS011;30340;52.004;5.908;2023-08-01T07:31:11;6.10;;;3.08;;
42036;SDS011;30340;52.004;5.908;2023-08-01T07:33:36;6.72;;;3.00;;
42036;SDS011;30340;52.004;5.908;2023-08-01T07:36:03;8.55;;;3.13;;
42036;SDS011;30340;52.004;5.908;2023-08-01T07:38:29;8.15;;;3.40;;
42036;SDS011;30340;52.004;5.908;2023-08-01T07:40:56;8.68;;;3.60;;
42036;SDS011;30340;52.004;5.908;2023-08-01T07:43:22;5.82;;;2.78;;
42036;SDS011;30340;52.004;5.908;2023-08-01T07:45:48;5.57;;;2.92;;
42036;SDS011;30340;52.004;5.908;2023-08-01T07:48:15;10.35;;;3.95;;
42036;SDS011;30340;52.004;5.908;2023-08-01T07:50:41;7.63;;;3.05;;
42036;SDS011;30340;52.004;5.908;2023-08-01T07:53:06;7.13;;;2.80;;
42036;SDS011;30340;52.004;5.908;2023-08-01T07:55:35;5.72;;;2.58;;
42036;SDS011;30340;52.004;5.908;2023-08-01T07:58:01;6.90;;;2.80;;
42036;SDS011;30340;52.004;5.908;2023-08-01T08:00:26;4.72;;;2.38;;
42036;SDS011;30340;52.004;5.908;2023-08-01T08:02:52;5.30;;;2.60;;
42036;SDS011;30340;52.004;5.908;2023-08-01T08:05:18;6.45;;;2.83;;
42036;SDS011;30340;52.004;5.908;2023-08-01T08:07:44;6.28;;;2.90;;
42036;SDS011;30340;52.004;5.908;2023-08-01T08:10:09;7.80;;;2.80;;
42036;SDS011;30340;52.004;5.908;2023-08-01T08:12:35;6.30;;;2.80;;
42036;SDS011;30340;52.004;5.908;2023-08-01T08:15:01;6.35;;;2.83;;
42036;SDS011;30340;52.004;5.908;2023-08-01T08:17:27;4.03;;;2.25;;
42036;SDS011;30340;52.004;5.908;2023-08-01T08:19:53;5.35;;;2.30;;
42036;SDS011;30340;52.004;5.908;2023-08-01T08:22:18;6.25;;;2.20;;
42036;SDS011;30340;52.004;5.908;2023-08-01T08:24:44;5.72;;;2.40;;
42036;SDS011;30340;52.004;5.908;2023-08-01T08:27:09;5.78;;;2.30;;
42036;SDS011;30340;52.004;5.908;2023-08-01T08:29:35;7.03;;;2.58;;
42036;SDS011;30340;52.004;5.908;2023-08-01T08:32:01;6.32;;;2.58;;
42036;SDS011;30340;52.004;5.908;2023-08-01T08:34:26;4.82;;;2.15;;
42036;SDS011;30340;52.004;5.908;2023-08-01T08:36:52;4.63;;;2.50;;
42036;SDS011;30340;52.004;5.908;2023-08-01T08:39:17;6.07;;;2.53;;
42036;SDS011;30340;52.004;5.908;2023-08-01T08:41:47;6.10;;;2.67;;
42036;SDS011;30340;52.004;5.908;2023-08-01T08:44:17;5.95;;;2.40;;
42036;SDS011;30340;52.004;5.908;2023-08-01T08:46:50;5.07;;;2.42;;
42036;SDS011;30340;52.004;5.908;2023-08-01T08:49:20;4.25;;;2.25;;
42036;SDS011;30340;52.004;5.908;2023-08-01T08:51:46;5.85;;;2.20;;
42036;SDS011;30340;52.004;5.908;2023-08-01T08:54:13;5.43;;;2.40;;
42036;SDS011;30340;52.004;5.908;2023-08-01T08:56:40;5.50;;;2.50;;
42036;SDS011;30340;52.004;5.908;2023-08-01T08:59:09;5.47;;;2.25;;
42036;SDS011;30340;52.004;5.908;2023-08-01T09:01:35;7.45;;;2.97;;
42036;SDS011;30340;52.004;5.908;2023-08-01T09:04:01;4.85;;;2.25;;
42036;SDS011;30340;52.004;5.908;2023-08-01T09:06:31;4.32;;;2.10;;
42036;SDS011;30340;52.004;5.908;2023-08-01T09:09:04;6.60;;;2.63;;
42036;SDS011;30340;52.004;5.908;2023-08-01T09:11:51;3.38;;;1.98;;
42036;SDS011;30340;52.004;5.908;2023-08-01T09:14:18;6.05;;;2.10;;
42036;SDS011;30340;52.004;5.908;2023-08-01T09:16:44;5.88;;;2.15;;
42036;SDS011;30340;52.004;5.908;2023-08-01T09:19:15;3.70;;;1.70;;
42036;SDS011;30340;52.004;5.908;2023-08-01T09:21:42;5.00;;;2.00;;
42036;SDS011;30340;52.004;5.908;2023-08-01T09:24:12;4.55;;;2.10;;
42036;SDS011;30340;52.004;5.908;2023-08-01T09:26:40;4.60;;;1.90;;
42036;SDS011;30340;52.004;5.908;2023-08-01T09:29:06;5.72;;;1.90;;
42036;SDS011;30340;52.004;5.908;2023-08-01T09:31:39;7.68;;;2.00;;
42036;SDS011;30340;52.004;5.908;2023-08-01T09:34:06;5.25;;;2.15;;
42036;SDS011;30340;52.004;5.908;2023-08-01T09:36:43;2.88;;;1.65;;
42036;SDS011;30340;52.004;5.908;2023-08-01T09:39:16;3.78;;;1.83;;
42036;SDS011;30340;52.004;5.908;2023-08-01T09:41:42;3.53;;;1.73;;
42036;SDS011;30340;52.004;5.908;2023-08-01T09:44:12;4.97;;;1.63;;
42036;SDS011;30340;52.004;5.908;2023-08-01T09:46:41;5.00;;;1.70;;
42036;SDS011;30340;52.004;5.908;2023-08-01T09:49:11;4.97;;;1.55;;
42036;SDS011;30340;52.004;5.908;2023-08-01T09:51:46;4.78;;;1.60;;
42036;SDS011;30340;52.004;5.908;2023-08-01T09:54:13;4.28;;;2.03;;
42036;SDS011;30340;52.004;5.908;2023-08-01T09:56:40;5.47;;;1.70;;
42036;SDS011;30340;52.004;5.908;2023-08-01T09:59:09;7.35;;;1.80;;
42036;SDS011;30340;52.004;5.908;2023-08-01T10:01:36;3.60;;;1.80;;
42036;SDS011;30340;52.004;5.908;2023-08-01T10:04:04;4.28;;;1.70;;
42036;SDS011;30340;52.004;5.908;2023-08-01T10:06:32;3.78;;;1.67;;
42036;SDS011;30340;52.004;5.908;2023-08-01T10:09:01;4.38;;;1.80;;
42036;SDS011;30340;52.004;5.908;2023-08-01T10:11:27;3.25;;;1.50;;
42036;SDS011;30340;52.004;5.908;2023-08-01T10:13:58;2.70;;;1.50;;
42036;SDS011;30340;52.004;5.908;2023-08-01T10:16:27;5.75;;;2.13;;
42036;SDS011;30340;52.004;5.908;2023-08-01T10:18:53;6.07;;;2.13;;
42036;SDS011;30340;52.004;5.908;2023-08-01T10:21:19;4.38;;;1.70;;
42036;SDS011;30340;52.004;5.908;2023-08-01T10:23:46;3.90;;;1.60;;
42036;SDS011;30340;52.004;5.908;2023-08-01T10:26:12;5.45;;;1.88;;
42036;SDS011;30340;52.004;5.908;2023-08-01T10:28:40;4.35;;;1.70;;
42036;SDS011;30340;52.004;5.908;2023-08-01T10:31:10;4.05;;;1.83;;
42036;SDS011;30340;52.004;5.908;2023-08-01T10:33:38;3.00;;;1.42;;
42036;SDS011;30340;52.004;5.908;2023-08-01T10:36:14;4.32;;;1.60;;
42036;SDS011;30340;52.004;5.908;2023-08-01T10:38:53;3.45;;;1.70;;
42036;SDS011;30340;52.004;5.908;2023-08-01T10:43:47;5.13;;;1.80;;
42036;SDS011;30340;52.004;5.908;2023-08-01T10:46:12;3.13;;;1.42;;
42036;SDS011;30340;52.004;5.908;2023-08-01T10:49:11;4.75;;;2.00;;
42036;SDS011;30340;52.004;5.908;2023-08-01T10:54:01;4.75;;;1.80;;
42036;SDS011;30340;52.004;5.908;2023-08-01T10:56:27;5.35;;;1.85;;
42036;SDS011;30340;52.004;5.908;2023-08-01T10:58:54;5.20;;;1.95;;
42036;SDS011;30340;52.004;5.908;2023-08-01T11:01:19;4.38;;;1.50;;
42036;SDS011;30340;52.004;5.908;2023-08-01T11:03:45;3.60;;;1.60;;
42036;SDS011;30340;52.004;5.908;2023-08-01T11:06:10;3.08;;;1.58;;
42036;SDS011;30340;52.004;5.908;2023-08-01T11:08:37;3.75;;;1.40;;
42036;SDS011;30340;52.004;5.908;2023-08-01T11:11:07;5.13;;;1.80;;
42036;SDS011;30340;52.004;5.908;2023-08-01T11:13:36;3.83;;;1.73;;
42036;SDS011;30340;52.004;5.908;2023-08-01T11:16:04;3.38;;;1.77;;
42036;SDS011;30340;52.004;5.908;2023-08-01T11:18:40;3.70;;;1.45;;
42036;SDS011;30340;52.004;5.908;2023-08-01T11:21:09;3.28;;;1.60;;
42036;SDS011;30340;52.004;5.908;2023-08-01T11:23:35;4.32;;;1.65;;
42036;SDS011;30340;52.004;5.908;2023-08-01T11:26:07;5.20;;;1.70;;
42036;SDS011;30340;52.004;5.908;2023-08-01T11:28:34;3.33;;;1.50;;
42036;SDS011;30340;52.004;5.908;2023-08-01T11:31:00;3.22;;;1.27;;
42036;SDS011;30340;52.004;5.908;2023-08-01T11:33:26;3.42;;;1.50;;
42036;SDS011;30340;52.004;5.908;2023-08-01T11:38:19;3.95;;;1.52;;
42036;SDS011;30340;52.004;5.908;2023-08-01T11:40:46;2.10;;;1.40;;
42036;SDS011;30340;52.004;5.908;2023-08-01T11:43:14;3.85;;;1.50;;
42036;SDS011;30340;52.004;5.908;2023-08-01T11:45:47;4.00;;;1.60;;
42036;SDS011;30340;52.004;5.908;2023-08-01T11:48:21;2.58;;;1.27;;
42036;SDS011;30340;52.004;5.908;2023-08-01T11:50:47;4.05;;;1.67;;
42036;SDS011;30340;52.004;5.908;2023-08-01T11:53:20;3.25;;;1.40;;
42036;SDS011;30340;52.004;5.908;2023-08-01T11:55:46;4.20;;;1.50;;
42036;SDS011;30340;52.004;5.908;2023-08-01T11:58:12;3.65;;;1.40;;
42036;SDS011;30340;52.004;5.908;2023-08-01T12:00:39;5.68;;;1.70;;
42036;SDS011;30340;52.004;5.908;2023-08-01T12:03:09;2.30;;;1.40;;
42036;SDS011;30340;52.004;5.908;2023-08-01T12:05:41;5.03;;;1.45;;
42036;SDS011;30340;52.004;5.908;2023-08-01T12:10:43;4.45;;;1.38;;
42036;SDS011;30340;52.004;5.908;2023-08-01T12:13:20;3.05;;;1.35;;
42036;SDS011;30340;52.004;5.908;2023-08-01T12:15:47;2.25;;;1.40;;
42036;SDS011;30340;52.004;5.908;2023-08-01T12:18:23;2.92;;;1.40;;
42036;SDS011;30340;52.004;5.908;2023-08-01T12:20:50;4.10;;;1.20;;
42036;SDS011;30340;52.004;5.908;2023-08-01T12:23:15;4.38;;;1.33;;
42036;SDS011;30340;52.004;5.908;2023-08-01T12:25:41;5.82;;;1.50;;
42036;SDS011;30340;52.004;5.908;2023-08-01T12:28:07;3.63;;;1.48;;
42036;SDS011;30340;52.004;5.908;2023-08-01T12:30:32;3.92;;;1.50;;
42036;SDS011;30340;52.004;5.908;2023-08-01T12:32:58;3.55;;;1.40;;
42036;SDS011;30340;52.004;5.908;2023-08-01T12:35:25;2.92;;;1.30;;
42036;SDS011;30340;52.004;5.908;2023-08-01T12:37:50;2.97;;;1.40;;
42036;SDS011;30340;52.004;5.908;2023-08-01T12:40:17;3.20;;;1.70;;
42036;SDS011;30340;52.004;5.908;2023-08-01T12:42:42;3.00;;;1.50;;
42036;SDS011;30340;52.004;5.908;2023-08-01T12:45:08;4.53;;;1.55;;
42036;SDS011;30340;52.004;5.908;2023-08-01T12:47:34;3.70;;;1.63;;
42036;SDS011;30340;52.004;5.908;2023-08-01T12:49:59;3.85;;;1.42;;
42036;SDS011;30340;52.004;5.908;2023-08-01T12:52:25;4.82;;;1.67;;
42036;SDS011;30340;52.004;5.908;2023-08-01T12:54:50;3.80;;;1.50;;
42036;SDS011;30340;52.004;5.908;2023-08-01T12:57:16;3.80;;;1.50;;
42036;SDS011;30340;52.004;5.908;2023-08-01T12:59:42;5.70;;;2.15;;
42036;SDS011;30340;52.004;5.908;2023-08-01T13:02:07;4.10;;;1.75;;
42036;SDS011;30340;52.004;5.908;2023-08-01T13:04:35;3.92;;;1.60;;
42036;SDS011;30340;52.004;5.908;2023-08-01T13:07:01;2.58;;;1.55;;
42036;SDS011;30340;52.004;5.908;2023-08-01T13:09:27;4.63;;;1.60;;
42036;SDS011;30340;52.004;5.908;2023-08-01T13:11:52;5.10;;;1.60;;
42036;SDS011;30340;52.004;5.908;2023-08-01T13:14:18;4.25;;;1.52;;
42036;SDS011;30340;52.004;5.908;2023-08-01T13:16:43;5.95;;;1.70;;
42036;SDS011;30340;52.004;5.908;2023-08-01T13:19:09;4.60;;;1.65;;
42036;SDS011;30340;52.004;5.908;2023-08-01T13:21:35;4.65;;;1.80;;
42036;SDS011;30340;52.004;5.908;2023-08-01T13:24:01;3.97;;;1.65;;
42036;SDS011;30340;52.004;5.908;2023-08-01T13:26:30;3.90;;;1.50;;
42036;SDS011;30340;52.004;5.908;2023-08-01T13:28:56;3.47;;;1.50;;
42036;SDS011;30340;52.004;5.908;2023-08-01T13:31:23;4.07;;;1.55;;
42036;SDS011;30340;52.004;5.908;2023-08-01T13:33:48;3.70;;;1.25;;
42036;SDS011;30340;52.004;5.908;2023-08-01T13:36:14;3.85;;;1.50;;
42036;SDS011;30340;52.004;5.908;2023-08-01T13:38:40;4.70;;;1.60;;
42036;SDS011;30340;52.004;5.908;2023-08-01T13:41:05;5.95;;;1.73;;
42036;SDS011;30340;52.004;5.908;2023-08-01T13:43:31;4.57;;;1.60;;
42036;SDS011;30340;52.004;5.908;2023-08-01T13:45:56;5.72;;;1.75;;
42036;SDS011;30340;52.004;5.908;2023-08-01T13:48:22;3.03;;;1.35;;
42036;SDS011;30340;52.004;5.908;2023-08-01T13:50:47;3.55;;;1.65;;
42036;SDS011;30340;52.004;5.908;2023-08-01T13:53:13;3.63;;;1.30;;
42036;SDS011;30340;52.004;5.908;2023-08-01T13:55:39;4.30;;;1.60;;
42036;SDS011;30340;52.004;5.908;2023-08-01T13:58:05;4.18;;;1.60;;
42036;SDS011;30340;52.004;5.908;2023-08-01T14:00:31;5.53;;;1.50;;
42036;SDS011;30340;52.004;5.908;2023-08-01T14:02:57;3.22;;;1.48;;
42036;SDS011;30340;52.004;5.908;2023-08-01T14:05:26;3.33;;;1.35;;
42036;SDS011;30340;52.004;5.908;2023-08-01T14:07:52;2.38;;;1.23;;
42036;SDS011;30340;52.004;5.908;2023-08-01T14:10:18;7.72;;;1.75;;
42036;SDS011;30340;52.004;5.908;2023-08-01T14:12:44;5.80;;;1.67;;
42036;SDS011;30340;52.004;5.908;2023-08-01T14:15:09;2.05;;;1.23;;
42036;SDS011;30340;52.004;5.908;2023-08-01T14:17:35;3.83;;;1.20;;
42036;SDS011;30340;52.004;5.908;2023-08-01T14:20:03;3.25;;;1.52;;
42036;SDS011;30340;52.004;5.908;2023-08-01T14:22:29;3.47;;;1.33;;
42036;SDS011;30340;52.004;5.908;2023-08-01T14:24:55;2.85;;;1.50;;
42036;SDS011;30340;52.004;5.908;2023-08-01T14:27:21;2.70;;;1.33;;
42036;SDS011;30340;52.004;5.908;2023-08-01T14:29:47;3.20;;;1.38;;
42036;SDS011;30340;52.004;5.908;2023-08-01T14:32:13;3.58;;;1.50;;
42036;SDS011;30340;52.004;5.908;2023-08-01T14:34:39;4.55;;;1.40;;
42036;SDS011;30340;52.004;5.908;2023-08-01T14:37:04;3.15;;;1.30;;
42036;SDS011;30340;52.004;5.908;2023-08-01T14:39:30;4.63;;;1.60;;
42036;SDS011;30340;52.004;5.908;2023-08-01T14:41:56;5.00;;;1.60;;
42036;SDS011;30340;52.004;5.908;2023-08-01T14:44:21;3.17;;;1.30;;
42036;SDS011;30340;52.004;5.908;2023-08-01T14:46:47;3.95;;;1.67;;
42036;SDS011;30340;52.004;5.908;2023-08-01T14:49:12;3.55;;;1.50;;
42036;SDS011;30340;52.004;5.908;2023-08-01T14:51:38;3.55;;;1.40;;